CDT,Max TemperatureF,Mean TemperatureF,Min TemperatureF,Max Dew PointF,MeanDew PointF,Min DewpointF,Max Humidity, Mean Humidity, Min Humidity, Max Sea Level PressureIn, Mean Sea Level PressureIn, Min Sea Level PressureIn, Max VisibilityMiles, Mean VisibilityMiles, Min VisibilityMiles, Max Wind SpeedMPH, Mean Wind SpeedMPH, Max Gust SpeedMPH,PrecipitationIn, CloudCover, Events, WindDirDegrees
2012-9-1,80,74,67,70,60,52,90,70,50,30.00,29.96,29.93,10,10,9,25,15,32,0.00,3,,56
2012-9-2,87,76,64,70,65,54,90,73,55,29.96,29.91,29.87,10,9,2,15,7,18,0.00,3,,63
2012-9-3,87,76,64,75,69,64,100,81,61,29.95,29.91,29.86,10,6,0,10,3,14,0.04,1,Fog-Rain,110
2012-9-4,91,80,68,72,69,64,100,72,44,29.89,29.84,29.76,10,7,0,15,6,18,0.00,1,Fog,153
2012-9-5,85,74,62,66,63,58,93,74,55,29.97,29.85,29.75,10,8,1,31,10,40,0.60,3,Rain-Thunderstorm,323
2012-9-6,81,68,55,59,53,45,93,62,30,29.99,29.93,29.87,10,10,10,13,6,17,T,0,,26
2012-9-7,71,63,54,63,58,46,93,80,67,29.97,29.87,29.77,10,9,2,39,9,60,0.82,6,Rain-Thunderstorm,6
2012-9-8,73,60,46,50,47,43,93,66,38,30.04,29.96,29.82,10,10,10,23,11,33,0.00,1,,298
2012-9-9,73,60,47,51,48,45,93,67,41,30.16,30.10,29.97,10,10,10,13,6,20,0.00,0,,354
2012-9-10,76,61,46,52,49,46,100,69,38,30.19,30.11,30.02,10,10,8,18,8,23,0.00,0,,166
2012-9-11,85,70,55,58,54,49,86,62,37,30.05,30.00,29.94,10,10,10,20,12,28,0.00,0,,174
2012-9-12,85,72,59,61,54,39,87,61,35,30.15,30.05,30.01,10,10,10,24,10,31,0.00,2,,193
2012-9-13,60,53,46,52,49,44,100,78,55,30.38,30.31,30.17,10,10,3,28,9,33,0.10,5,Rain,1
2012-9-14,73,57,41,51,45,39,100,66,31,30.38,30.34,30.29,10,10,8,16,6,20,0.00,0,,234
2012-9-15,75,59,42,49,46,42,100,67,33,30.32,30.23,30.12,10,10,6,14,6,21,0.00,0,,183
2012-9-16,73,58,43,56,51,43,100,74,47,30.12,30.04,29.95,10,10,8,16,5,22,0.00,0,,191
2012-9-17,66,54,41,61,52,41,100,84,67,29.95,29.90,29.86,10,6,0,28,7,33,0.05,3,Fog-Rain,262
2012-9-18,61,49,36,42,36,28,100,66,31,30.04,30.00,29.94,10,10,10,20,7,23,0.00,1,,318
2012-9-19,77,59,40,50,41,36,89,62,35,30.01,29.87,29.72,10,10,10,29,13,39,0.00,2,,202
2012-9-20,68,54,40,39,34,30,76,51,26,29.96,29.93,29.89,10,10,9,23,9,30,0.00,0,,290
2012-9-21,61,51,41,49,44,37,100,79,57,29.94,29.87,29.80,10,10,10,20,6,25,0.01,4,Rain,102
2012-9-22,56,45,33,45,35,27,100,75,50,30.25,30.10,29.83,10,10,10,23,12,31,0.00,2,,312
2012-9-23,60,45,29,35,29,23,96,62,27,30.34,30.28,30.23,10,10,10,17,6,33,0.00,0,,320
2012-9-24,73,51,28,40,33,27,100,63,25,30.25,30.05,29.87,10,10,10,21,8,26,0.00,0,,187
2012-9-25,81,62,42,50,44,41,92,60,28,29.90,29.84,29.79,10,10,7,12,4,14,0.00,0,,271
2012-9-26,70,58,46,42,39,35,82,55,28,30.14,30.02,29.90,10,10,10,16,8,20,0.00,0,,37
2012-9-27,68,54,39,41,38,36,100,66,32,30.26,30.20,30.15,10,10,10,13,7,16,0.00,0,,91
2012-9-28,71,54,37,44,39,36,100,64,28,30.25,30.18,30.13,10,10,7,12,3,15,0.00,0,,37
2012-9-29,81,61,40,42,39,37,93,57,21,30.16,30.07,29.97,10,10,7,17,6,23,0.00,0,,314
2012-9-30,73,58,42,43,41,39,89,60,31,29.99,29.94,29.90,10,10,8,10,4,13,0.00,0,,62